Time;durP1;ratioP1;P1;durP2;ratioP2;P2;SDS_P1;SDS_P2;PMS_P1;PMS_P2;Temp;Humidity;BMP_temperature;BMP_pressure;BME280_temperature;BME280_humidity;BME280_pressure;Samples;Min_cycle;Max_cycle;Signal;HPM_P1;HPM_P2
2022/02/14 00:02:18;;;;;;;;;4.50;3.50;;;;;19.50;36.76;99544.47;5055254;28;46059;-61
2022/02/14 00:04:44;;;;;;;;;4.50;4.00;;;;;19.50;36.56;99544.47;5056329;28;45470;-60
2022/02/14 00:07:09;;;;;;;;;5.50;4.75;;;;;19.49;36.58;99539.31;5038248;28;45342;-59
2022/02/14 00:09:35;;;;;;;;;7.25;5.75;;;;;19.48;36.94;99530.59;5054994;28;45289;-59
2022/02/14 00:12:00;;;;;;;;;5.50;4.00;;;;;19.49;36.68;99526.19;5056027;28;46280;-62
2022/02/14 00:14:27;;;;;;;;;3.25;2.75;;;;;19.46;36.48;99528.06;5055951;28;45495;-62
2022/02/14 00:16:53;;;;;;;;;6.00;4.50;;;;;19.46;36.57;99525.44;5056390;28;45396;-60
2022/02/14 00:19:19;;;;;;;;;6.00;5.00;;;;;19.46;36.86;99519.34;5056580;28;45459;-62
2022/02/14 00:21:44;;;;;;;;;3.00;3.00;;;;;19.45;36.48;99523.78;5037824;28;46390;-65
2022/02/14 00:24:10;;;;;;;;;6.00;5.50;;;;;19.43;36.87;99509.91;5055784;28;45235;-61
2022/02/14 00:26:37;;;;;;;;;7.25;5.00;;;;;19.44;36.86;99514.22;5056062;28;45265;-60
2022/02/14 00:29:03;;;;;;;;;4.00;4.00;;;;;19.43;37.02;99512.53;5056339;28;45388;-60
2022/02/14 00:31:29;;;;;;;;;4.75;4.75;;;;;19.43;36.92;99509.91;5055826;28;46687;-62
2022/02/14 00:33:54;;;;;;;;;5.75;5.75;;;;;19.43;36.95;99509.91;5055977;28;45348;-62
2022/02/14 00:36:20;;;;;;;;;6.50;5.00;;;;;19.41;36.85;99506.56;5056351;28;45357;-60
2022/02/14 00:38:45;;;;;;;;;5.00;4.00;;;;;19.42;37.27;99517.88;5056077;28;45391;-60
2022/02/14 00:41:10;;;;;;;;;4.00;4.00;;;;;19.41;36.78;99501.31;5055686;28;46669;-60
2022/02/14 00:43:36;;;;;;;;;5.75;4.00;;;;;19.39;36.86;99500.56;5055737;28;45355;-58
2022/02/14 00:46:01;;;;;;;;;6.75;3.00;;;;;19.40;36.65;99504.88;5055819;28;45481;-61
2022/02/14 00:48:26;;;;;;;;;4.50;4.00;;;;;19.39;37.13;99495.31;5056027;28;45546;-61
2022/02/14 00:50:52;;;;;;;;;4.75;4.00;;;;;19.41;36.82;99489.94;5055872;28;46479;-63
2022/02/14 00:53:19;;;;;;;;;4.50;4.50;;;;;19.40;37.05;99483.03;5055549;28;45367;-64
2022/02/14 00:55:45;;;;;;;;;4.00;3.25;;;;;19.40;36.92;99477.78;5055610;28;45372;-64
2022/02/14 00:58:10;;;;;;;;;4.00;3.00;;;;;19.39;36.84;99487.44;5055946;28;45577;-64
2022/02/14 01:00:35;;;;;;;;;4.00;4.00;;;;;19.39;37.12;99482.16;5055475;28;45340;-63
2022/02/14 01:03:02;;;;;;;;;7.00;5.00;;;;;19.38;37.22;99480.50;5055468;28;45369;-64
2022/02/14 01:05:27;;;;;;;;;3.50;3.50;;;;;19.39;37.08;99476.09;5055690;28;45235;-65
2022/02/14 01:07:53;;;;;;;;;7.75;5.00;;;;;19.38;37.11;99480.50;5055941;28;45352;-65
2022/02/14 01:10:18;;;;;;;;;6.75;4.50;;;;;19.37;36.80;99476.19;5055477;28;45340;-64
2022/02/14 01:12:44;;;;;;;;;4.75;3.00;;;;;19.37;37.08;99475.34;5056630;28;45265;-63
2022/02/14 01:15:10;;;;;;;;;5.50;4.00;;;;;19.36;37.11;99469.25;5058858;28;45407;-60
2022/02/14 01:17:37;;;;;;;;;2.75;2.75;;;;;19.37;37.04;99472.72;5059127;28;45370;-65
2022/02/14 01:20:05;;;;;;;;;5.75;4.75;;;;;19.35;36.67;99467.56;5058628;28;46357;-62
2022/02/14 01:22:31;;;;;;;;;5.00;4.00;;;;;19.36;37.05;99469.25;5058638;28;45883;-64
2022/02/14 01:24:57;;;;;;;;;3.00;3.00;;;;;19.34;37.20;99460.66;5058965;28;45272;-64
2022/02/14 01:27:23;;;;;;;;;3.50;3.50;;;;;19.33;36.95;99466.88;5059278;28;45155;-65
2022/02/14 01:29:48;;;;;;;;;3.50;3.50;;;;;19.34;36.93;99452.78;5058596;28;46741;-64
2022/02/14 01:32:13;;;;;;;;;4.50;4.25;;;;;19.33;37.14;99447.63;5058579;28;45325;-63
2022/02/14 01:34:39;;;;;;;;;4.75;3.50;;;;;19.32;36.96;99446.78;5058749;28;45325;-63
2022/02/14 01:37:05;;;;;;;;;3.00;3.00;;;;;19.33;37.06;99447.63;5058517;28;45579;-64
2022/02/14 01:39:31;;;;;;;;;4.00;4.00;;;;;19.29;37.26;99449.63;5058498;28;47091;-64
2022/02/14 01:41:57;;;;;;;;;5.00;3.75;;;;;19.32;37.18;99433.66;5058539;28;45854;-61
2022/02/14 01:44:45;;;;;;;;;3.00;2.50;;;;;19.31;37.33;99443.31;5040739;28;45442;-65
2022/02/14 01:47:19;;;;;;;;;4.00;3.50;;;;;19.29;36.96;99439.13;5058670;28;45352;-64
2022/02/14 01:49:47;;;;;;;;;5.50;4.00;;;;;19.30;37.08;99419.78;5040169;28;47648;-65
2022/02/14 01:52:13;;;;;;;;;2.75;2.75;;;;;19.29;36.83;99407.59;5058254;28;45225;-65
2022/02/14 01:54:41;;;;;;;;;5.50;3.25;;;;;19.30;37.27;99425.03;5058404;28;45232;-66
2022/02/14 01:57:09;;;;;;;;;4.25;4.25;;;;;19.28;37.14;99421.69;5058451;28;45259;-65
2022/02/14 01:59:35;;;;;;;;;4.00;2.00;;;;;19.29;37.17;99413.69;5058098;28;45426;-65
2022/02/14 02:02:01;;;;;;;;;4.50;2.75;;;;;19.30;37.10;99417.16;5058094;28;45324;-64
2022/02/14 02:04:28;;;;;;;;;4.75;3.00;;;;;19.31;37.27;99429.34;5058500;28;45196;-67
2022/02/14 02:06:53;;;;;;;;;4.25;4.25;;;;;19.33;37.05;99422.19;5058652;28;45391;-65
2022/02/14 02:09:19;;;;;;;;;5.25;2.75;;;;;19.36;37.01;99426.38;5057996;28;45900;-66
2022/02/14 02:14:28;;;;;;;;;2.00;2.00;;;;;19.43;36.97;99409.22;5058180;28;45406;-59
2022/02/14 02:16:54;;;;;;;;;4.25;2.50;;;;;19.44;37.03;99398.63;5058405;28;45948;-66
2022/02/14 02:19:19;;;;;;;;;6.00;3.25;;;;;19.53;37.22;99419.91;5057781;28;46008;-63
2022/02/14 02:21:45;;;;;;;;;3.00;3.00;;;;;19.58;37.38;99417.75;5057746;28;45347;-67
2022/02/14 02:24:14;;;;;;;;;4.25;3.00;;;;;19.61;37.19;99414.91;5056741;28;45304;-65
2022/02/14 02:26:40;;;;;;;;;3.50;3.50;;;;;19.67;36.95;99401.31;5058007;28;45237;-66
2022/02/14 02:29:06;;;;;;;;;3.25;3.25;;;;;19.72;37.16;99393.91;5057585;28;45575;-66
2022/02/14 02:31:31;;;;;;;;;4.50;3.00;;;;;19.75;36.89;99392.84;5057624;28;45273;-65
2022/02/14 02:33:56;;;;;;;;;3.75;3.00;;;;;19.80;37.17;99400.38;5058103;28;45316;-65
2022/02/14 02:36:22;;;;;;;;;2.00;2.00;;;;;19.86;37.29;99402.59;5057873;28;45491;-66
2022/02/14 02:38:47;;;;;;;;;5.00;3.00;;;;;19.89;37.31;99405.00;5057589;28;46308;-65
2022/02/14 02:41:13;;;;;;;;;3.50;2.00;;;;;19.92;36.90;99421.38;5057569;28;45342;-66
2022/02/14 02:43:38;;;;;;;;;3.00;3.00;;;;;19.98;36.74;99398.19;5057399;28;45297;-67
2022/02/14 02:46:04;;;;;;;;;1.50;1.50;;;;;20.00;37.17;99397.16;5057599;28;45492;-63
2022/02/14 02:48:30;;;;;;;;;3.00;3.00;;;;;20.04;36.87;99395.13;5057733;28;46266;-67
2022/02/14 02:51:02;;;;;;;;;4.00;3.00;;;;;20.07;36.94;99394.84;5057641;28;45403;-65
2022/02/14 02:53:30;;;;;;;;;5.50;4.50;;;;;20.12;36.80;99403.25;5057695;28;45322;-65
2022/02/14 02:55:56;;;;;;;;;1.50;1.50;;;;;20.15;36.87;99397.75;5057851;28;45588;-66
2022/02/14 02:58:22;;;;;;;;;4.00;3.25;;;;;20.19;37.03;99401.81;5057150;28;45523;-63
2022/02/14 03:00:48;;;;;;;;;2.25;2.25;;;;;20.22;36.79;99411.28;5057148;28;45386;-65
2022/02/14 03:03:13;;;;;;;;;3.00;3.00;;;;;20.24;37.01;99389.16;5057215;28;45327;-64
2022/02/14 03:05:38;;;;;;;;;3.50;2.25;;;;;20.27;36.84;99417.03;5057436;28;45332;-65
2022/02/14 03:08:04;;;;;;;;;3.75;3.25;;;;;20.29;36.37;99396.69;5056828;28;46405;-65
2022/02/14 03:10:30;;;;;;;;;4.00;2.75;;;;;20.31;36.95;99400.06;5057353;28;45384;-67
2022/02/14 03:12:55;;;;;;;;;2.00;2.00;;;;;20.33;36.33;99395.50;5057204;28;45226;-64
2022/02/14 03:15:20;;;;;;;;;3.00;3.00;;;;;20.34;36.71;99401.59;5057002;28;45249;-65
2022/02/14 03:17:46;;;;;;;;;3.75;3.75;;;;;20.35;36.33;99393.56;5057008;28;45271;-66
2022/02/14 03:20:11;;;;;;;;;3.25;3.00;;;;;20.36;36.75;99394.44;5038910;28;45665;-66
2022/02/14 03:22:37;;;;;;;;;2.00;2.00;;;;;20.37;36.50;99399.56;5056888;28;45411;-65
2022/02/14 03:25:03;;;;;;;;;1.00;1.00;;;;;20.38;36.57;99403.88;5057326;28;45606;-63
2022/02/14 03:27:28;;;;;;;;;3.50;2.00;;;;;20.39;36.50;99402.09;5056904;28;46714;-66
2022/02/14 03:29:53;;;;;;;;;2.25;2.25;;;;;20.39;36.52;99421.34;5056727;28;45346;-66
2022/02/14 03:32:19;;;;;;;;;3.00;2.50;;;;;20.39;36.39;99416.06;5038798;28;45508;-66
2022/02/14 03:34:44;;;;;;;;;2.00;2.00;;;;;20.39;36.68;99408.19;5056774;28;45586;-66
2022/02/14 03:37:09;;;;;;;;;3.00;3.00;;;;;20.39;36.89;99413.44;5056536;28;45384;-66
2022/02/14 03:39:35;;;;;;;;;2.00;2.00;;;;;20.41;36.90;99423.03;5056709;28;45332;-65
2022/02/14 03:42:00;;;;;;;;;2.00;2.00;;;;;20.41;36.17;99428.28;5056973;28;45314;-64
2022/02/14 03:44:25;;;;;;;;;3.25;3.25;;;;;20.43;36.87;99429.81;5056790;28;45299;-63
2022/02/14 03:46:51;;;;;;;;;2.00;2.00;;;;;20.42;36.63;99438.69;5056476;28;45551;-65
2022/02/14 03:49:16;;;;;;;;;5.00;3.25;;;;;20.43;36.24;99445.63;5055283;28;45543;-66
2022/02/14 03:51:43;;;;;;;;;2.00;2.00;;;;;20.38;36.59;99435.44;5056617;28;45458;-65
2022/02/14 03:54:08;;;;;;;;;3.00;2.00;;;;;20.41;36.41;99449.34;5056889;28;45547;-65
2022/02/14 03:56:34;;;;;;;;;3.25;3.25;;;;;20.38;36.99;99445.16;5056422;28;45941;-65
2022/02/14 03:58:59;;;;;;;;;1.25;1.00;;;;;20.37;36.77;99449.56;5056651;28;45326;-66
2022/02/14 04:01:25;;;;;;;;;2.00;2.00;;;;;20.35;36.87;99462.00;5056416;28;45297;-65
2022/02/14 04:03:50;;;;;;;;;3.75;3.75;;;;;20.35;36.65;99501.47;5038415;28;45279;-67
2022/02/14 04:06:15;;;;;;;;;0.50;0.50;;;;;20.33;36.60;99519.19;5056213;28;45997;-64
2022/02/14 04:08:41;;;;;;;;;2.00;2.00;;;;;20.33;36.53;99519.19;5056252;28;45240;-66
2022/02/14 04:11:06;;;;;;;;;2.50;2.50;;;;;20.33;37.27;99534.97;5056425;28;45185;-65
2022/02/14 04:13:31;;;;;;;;;3.00;2.50;;;;;20.31;36.62;99528.13;5056682;28;45213;-65
2022/02/14 04:15:57;;;;;;;;;2.00;2.00;;;;;20.31;37.00;99536.00;5055913;28;45492;-65
2022/02/14 04:18:22;;;;;;;;;2.00;2.00;;;;;20.30;36.92;99539.59;5056086;28;45198;-62
2022/02/14 04:20:47;;;;;;;;;0.50;0.50;;;;;20.29;37.03;99551.94;5056210;28;45348;-64
2022/02/14 04:23:12;;;;;;;;;2.50;1.00;;;;;20.28;36.70;99546.78;5056214;28;45498;-64
2022/02/14 04:25:38;;;;;;;;;1.75;1.75;;;;;20.27;36.87;99550.38;5055833;28;45349;-65
2022/02/14 04:28:03;;;;;;;;;3.00;1.00;;;;;20.27;37.31;99555.63;5056082;28;45308;-63
2022/02/14 04:30:31;;;;;;;;;2.50;2.50;;;;;20.24;37.43;99554.91;5056211;28;45930;-62
2022/02/14 04:33:00;;;;;;;;;2.00;2.00;;;;;20.25;36.82;99558.38;5038221;28;45316;-61
2022/02/14 04:35:28;;;;;;;;;4.25;2.75;;;;;20.23;37.33;99565.53;5055931;28;45697;-61
2022/02/14 04:37:54;;;;;;;;;2.75;2.00;;;;;20.19;37.44;99566.72;5054602;28;46000;-62
2022/02/14 04:40:21;;;;;;;;;2.00;1.25;;;;;20.20;37.59;99578.94;5056093;28;45706;-64
2022/02/14 04:42:47;;;;;;;;;3.00;3.00;;;;;20.19;37.24;99583.34;5056042;28;45364;-65
2022/02/14 04:45:12;;;;;;;;;2.25;2.25;;;;;20.19;37.37;99579.88;5055766;28;46505;-65
2022/02/14 04:47:37;;;;;;;;;2.75;2.50;;;;;20.20;37.46;99586.81;5056842;28;45457;-65
2022/02/14 04:50:03;;;;;;;;;1.75;1.75;;;;;20.20;37.13;99594.72;5059755;28;45363;-66
2022/02/14 04:52:29;;;;;;;;;1.75;1.75;;;;;20.18;37.39;99604.50;5059641;28;45570;-64
2022/02/14 04:54:54;;;;;;;;;2.00;2.00;;;;;20.17;37.76;99610.72;5058946;28;50407;-64
2022/02/14 04:57:19;;;;;;;;;1.50;1.50;;;;;20.14;37.80;99603.03;5059093;28;45372;-66
2022/02/14 04:59:45;;;;;;;;;1.00;1.00;;;;;20.16;37.76;99617.78;5059244;28;45423;-65
2022/02/14 05:02:10;;;;;;;;;4.50;2.25;;;;;20.16;37.87;99617.78;5059209;28;45354;-63
2022/02/14 05:04:35;;;;;;;;;1.25;1.25;;;;;20.15;37.80;99626.63;5059063;28;46447;-65
2022/02/14 05:07:01;;;;;;;;;1.00;1.00;;;;;20.11;37.48;99626.97;5059001;28;46537;-64
2022/02/14 05:09:26;;;;;;;;;1.25;1.25;;;;;20.14;37.46;99645.13;5059334;28;45516;-66
2022/02/14 05:11:53;;;;;;;;;3.00;3.00;;;;;20.13;37.75;99640.81;5041251;28;45661;-66
2022/02/14 05:14:18;;;;;;;;;3.25;2.00;;;;;20.13;37.57;99646.06;5058676;28;45513;-64
2022/02/14 05:16:44;;;;;;;;;3.00;2.25;;;;;20.10;37.44;99654.22;5058852;28;45386;-66
2022/02/14 05:19:09;;;;;;;;;2.00;2.00;;;;;20.07;37.93;99650.84;5058958;28;45383;-62
2022/02/14 05:21:35;;;;;;;;;1.00;1.00;;;;;20.07;37.54;99658.72;5059368;28;45314;-67
2022/02/14 05:24:00;;;;;;;;;3.00;1.25;;;;;20.07;37.60;99660.50;5058562;28;46572;-63
2022/02/14 05:26:25;;;;;;;;;2.00;2.00;;;;;20.06;37.48;99672.00;5040463;28;45729;-63
2022/02/14 05:28:54;;;;;;;;;3.00;1.00;;;;;20.05;37.59;99671.16;5057488;28;45367;-62
2022/02/14 05:31:24;;;;;;;;;1.00;1.00;;;;;20.04;37.52;99680.00;5058909;28;45486;-67
2022/02/14 05:33:50;;;;;;;;;1.75;1.50;;;;;20.04;37.54;99684.44;5058520;28;45377;-64
2022/02/14 05:36:18;;;;;;;;;1.00;1.00;;;;;20.02;37.48;99689.78;5058454;28;45328;-66
2022/02/14 05:38:43;;;;;;;;;1.00;1.00;;;;;20.02;37.49;99691.59;5058748;28;45340;-65
2022/02/14 05:41:08;;;;;;;;;1.00;1.00;;;;;20.02;37.48;99688.94;5058760;28;45499;-64
2022/02/14 05:43:34;;;;;;;;;1.00;1.00;;;;;20.00;37.87;99702.22;5058703;28;45503;-66
2022/02/14 05:45:59;;;;;;;;;1.00;1.00;;;;;20.00;37.44;99704.84;5058329;28;45343;-67
2022/02/14 05:48:26;;;;;;;;;1.00;1.00;;;;;19.99;37.71;99700.53;5058304;28;45385;-65
2022/02/14 05:50:55;;;;;;;;;0.00;0.00;;;;;19.98;37.50;99709.38;5058563;28;45379;-65
2022/02/14 05:53:21;;;;;;;;;0.25;0.25;;;;;19.97;37.99;99715.56;5058066;28;45535;-66
2022/02/14 05:55:46;;;;;;;;;1.00;1.00;;;;;19.95;37.52;99709.59;5058268;28;45840;-64
2022/02/14 05:58:12;;;;;;;;;0.50;0.50;;;;;19.95;38.00;99725.38;5058335;28;45333;-65
2022/02/14 06:00:37;;;;;;;;;0.00;0.00;;;;;19.94;37.56;99723.69;5058702;28;45518;-67
2022/02/14 06:03:02;;;;;;;;;0.00;0.00;;;;;19.93;37.65;99730.75;5057987;28;46417;-64
2022/02/14 06:05:28;;;;;;;;;1.00;1.00;;;;;19.93;37.77;99736.00;5056716;28;52192;-65
2022/02/14 06:07:53;;;;;;;;;0.50;0.50;;;;;19.92;38.04;99739.56;5058137;28;45417;-66
2022/02/14 06:10:18;;;;;;;;;0.50;0.50;;;;;19.92;37.74;99749.25;5058335;28;45539;-65
2022/02/14 06:12:44;;;;;;;;;0.00;0.00;;;;;19.90;38.00;99746.72;5058174;28;45597;-66
2022/02/14 06:15:10;;;;;;;;;0.00;0.00;;;;;19.91;38.08;99756.28;5058126;28;45307;-59
2022/02/14 06:17:35;;;;;;;;;0.75;0.00;;;;;19.88;37.73;99760.94;5058355;28;45356;-62
2022/02/14 06:20:01;;;;;;;;;0.50;0.50;;;;;19.88;38.41;99779.34;5040122;28;45689;-65
2022/02/14 06:22:26;;;;;;;;;1.00;0.00;;;;;19.88;38.04;99779.34;5039549;28;47388;-65
2022/02/14 06:24:51;;;;;;;;;0.00;0.00;;;;;19.87;37.72;99796.06;5057815;28;45357;-65
2022/02/14 06:27:17;;;;;;;;;0.50;0.50;;;;;19.86;37.58;99794.38;5057819;28;45994;-67
2022/02/14 06:29:42;;;;;;;;;0.00;0.00;;;;;19.87;37.73;99798.69;5058038;28;45547;-64
2022/02/14 06:32:08;;;;;;;;;0.00;0.00;;;;;19.88;37.59;99803.00;5057820;28;46085;-61
2022/02/14 06:34:33;;;;;;;;;0.00;0.00;;;;;19.91;37.60;99810.66;5057788;28;45266;-60
2022/02/14 06:36:58;;;;;;;;;0.00;0.00;;;;;19.94;37.67;99810.47;5057747;28;45332;-61
2022/02/14 06:39:24;;;;;;;;;0.00;0.00;;;;;19.96;37.78;99811.19;5058013;28;45644;-63
2022/02/14 06:41:49;;;;;;;;;1.00;0.00;;;;;20.02;37.68;99815.19;5057477;28;46347;-61
2022/02/14 06:44:15;;;;;;;;;0.00;0.00;;;;;20.05;38.03;99815.81;5057556;28;45351;-61
2022/02/14 06:46:41;;;;;;;;;0.00;0.00;;;;;20.10;37.85;99812.88;5058116;28;45460;-60
2022/02/14 06:49:06;;;;;;;;;0.00;0.00;;;;;20.15;37.55;99821.28;5058020;28;45465;-63
2022/02/14 06:51:35;;;;;;;;;2.00;0.00;;;;;20.18;37.28;99814.97;5057320;28;47235;-62
2022/02/14 06:54:02;;;;;;;;;0.00;0.00;;;;;20.22;37.53;99816.44;5057532;28;45824;-59
2022/02/14 06:56:27;;;;;;;;;1.00;0.00;;;;;20.28;37.23;99823.06;5057412;28;45383;-61
2022/02/14 06:58:53;;;;;;;;;3.00;0.00;;;;;20.31;37.55;99822.81;5057755;28;45372;-62
2022/02/14 07:01:18;;;;;;;;;0.00;0.00;;;;;20.34;37.40;99826.06;5039043;28;46269;-62
2022/02/14 07:03:43;;;;;;;;;0.00;0.00;;;;;20.41;37.04;99841.44;5057112;28;45228;-60
2022/02/14 07:06:09;;;;;;;;;1.00;0.00;;;;;20.43;37.62;99844.81;5057723;28;45480;-61
2022/02/14 07:08:35;;;;;;;;;0.50;0.00;;;;;20.46;36.95;99845.44;5057605;28;45328;-66
2022/02/14 07:11:00;;;;;;;;;0.00;0.00;;;;;20.46;36.40;99853.34;5056425;28;45468;-63
2022/02/14 07:13:26;;;;;;;;;0.75;0.00;;;;;20.41;36.16;99851.97;5057050;28;45415;-65
2022/02/14 07:15:52;;;;;;;;;1.00;1.00;;;;;20.39;36.23;99855.56;5056829;28;45331;-63
2022/02/14 07:18:17;;;;;;;;;1.00;1.00;;;;;20.31;35.78;99857.91;5057192;28;45569;-62
2022/02/14 07:20:43;;;;;;;;;1.00;1.00;;;;;20.26;35.72;99869.69;5057167;28;45460;-62
2022/02/14 07:23:09;;;;;;;;;0.00;0.00;;;;;20.17;35.95;99861.50;5057127;28;45339;-63
2022/02/14 07:25:34;;;;;;;;;0.00;0.00;;;;;20.16;36.07;99862.44;5057064;28;45246;-69
2022/02/14 07:28:00;;;;;;;;;0.75;0.00;;;;;20.09;35.62;99863.78;5057135;28;45411;-64
2022/02/14 07:30:25;;;;;;;;;0.25;0.25;;;;;20.13;36.06;99880.19;5056677;28;45422;-49
2022/02/14 07:32:51;;;;;;;;;0.00;0.00;;;;;20.13;36.48;99880.19;5056779;28;45169;-48
2022/02/14 07:35:17;;;;;;;;;0.25;0.00;;;;;20.12;36.37;99883.81;5056861;28;45362;-45
2022/02/14 07:37:44;;;;;;;;;0.25;0.00;;;;;20.12;36.53;99886.44;5057213;28;45495;-52
2022/02/14 07:40:10;;;;;;;;;0.75;0.00;;;;;20.11;36.47;99893.47;5056846;28;46088;-46
2022/02/14 07:42:35;;;;;;;;;0.75;0.75;;;;;20.12;36.82;99895.16;5056668;28;45331;-58
2022/02/14 07:45:03;;;;;;;;;1.75;0.75;;;;;20.12;36.41;99892.53;5056774;28;45446;-54
2022/02/14 07:47:28;;;;;;;;;0.00;0.00;;;;;20.12;36.53;99892.53;5056882;28;45336;-49
2022/02/14 07:50:07;;;;;;;;;0.00;0.00;;;;;20.15;36.28;99899.34;5057278;28;45530;-47
2022/02/14 07:52:43;;;;;;;;;1.50;0.75;;;;;20.14;36.20;99897.66;5058011;28;45766;-47
2022/02/14 07:55:09;;;;;;;;;1.00;0.50;;;;;20.12;36.83;99899.59;5057665;28;45383;-47
2022/02/14 07:57:37;;;;;;;;;1.00;0.00;;;;;20.17;36.33;99913.25;5058679;28;45343;-50
2022/02/14 08:00:05;;;;;;;;;0.25;0.00;;;;;20.17;36.55;99913.25;5058048;28;47290;-49
2022/02/14 08:02:30;;;;;;;;;0.00;0.00;;;;;20.17;36.12;99914.09;5058063;28;45277;-51
2022/02/14 08:04:56;;;;;;;;;0.00;0.00;;;;;20.17;36.72;99921.16;5057524;28;45412;-51
2022/02/14 08:07:25;;;;;;;;;0.50;0.50;;;;;20.16;36.94;99912.44;5057972;28;45583;-44
2022/02/14 08:09:59;;;;;;;;;0.00;0.00;;;;;20.20;36.90;99915.69;5057762;28;46091;-53
2022/02/14 08:12:29;;;;;;;;;0.00;0.00;;;;;20.20;37.03;99934.09;5058305;28;45353;-50
2022/02/14 08:15:13;;;;;;;;;0.25;0.25;;;;;20.19;36.44;99937.69;5040901;28;45318;-45
2022/02/14 08:17:54;;;;;;;;;0.00;0.00;;;;;20.19;37.04;99932.41;5039483;28;45553;-46
2022/02/14 08:20:19;;;;;;;;;0.00;0.00;;;;;20.21;36.67;99947.13;5057085;28;46411;-55
2022/02/14 08:22:51;;;;;;;;;1.75;0.50;;;;;20.21;36.82;99947.13;5041370;28;45439;-53
2022/02/14 08:25:17;;;;;;;;;0.50;0.50;;;;;20.15;36.61;99951.97;5061232;28;45281;-46
2022/02/14 08:27:47;;;;;;;;;2.00;1.00;;;;;20.21;36.50;99957.66;5061708;28;45221;-48
2022/02/14 08:30:12;;;;;;;;;0.50;0.00;;;;;20.20;36.48;99960.41;5043277;28;48258;-46
2022/02/14 08:32:39;;;;;;;;;0.00;0.00;;;;;20.20;37.03;99957.78;5060724;28;45406;-47
2022/02/14 08:35:05;;;;;;;;;0.00;0.00;;;;;20.21;36.33;99962.09;5060835;28;45434;-52
2022/02/14 08:37:30;;;;;;;;;0.00;0.00;;;;;20.22;36.63;99967.25;5060738;28;45458;-55
2022/02/14 08:39:55;;;;;;;;;1.00;0.00;;;;;20.21;36.81;99962.09;5058911;28;48088;-53
2022/02/14 08:42:21;;;;;;;;;0.00;0.00;;;;;20.19;36.79;99964.81;5059713;28;45488;-45
2022/02/14 08:44:49;;;;;;;;;0.00;0.00;;;;;20.19;36.78;99969.25;5060585;28;45300;-47
2022/02/14 08:47:15;;;;;;;;;0.50;0.00;;;;;20.19;36.54;99969.25;5060355;28;45450;-52
2022/02/14 08:49:40;;;;;;;;;0.00;0.00;;;;;20.20;36.87;99966.50;5059222;28;47251;-44
2022/02/14 08:52:06;;;;;;;;;0.00;0.00;;;;;20.21;36.70;99968.19;5059284;28;45417;-47
2022/02/14 08:54:32;;;;;;;;;0.00;0.00;;;;;20.20;36.98;99965.66;5059425;28;45414;-51
2022/02/14 08:56:57;;;;;;;;;0.00;0.00;;;;;20.20;36.80;99965.66;5059580;28;45597;-45
2022/02/14 08:59:22;;;;;;;;;0.00;0.00;;;;;20.19;36.53;99959.56;5059235;28;45873;-42
2022/02/14 09:01:48;;;;;;;;;0.00;0.00;;;;;20.18;36.48;99959.66;5059138;28;45446;-47
2022/02/14 09:04:14;;;;;;;;;1.00;0.00;;;;;20.19;36.97;99963.97;5059592;28;45451;-51
2022/02/14 09:06:40;;;;;;;;;0.25;0.25;;;;;20.16;37.29;99958.91;5059245;28;45680;-48
2022/02/14 09:09:06;;;;;;;;;1.00;1.00;;;;;20.18;36.85;99962.28;5058922;28;45465;-43
2022/02/14 09:11:32;;;;;;;;;1.00;0.00;;;;;20.16;37.22;99967.69;5058386;28;45320;-44
2022/02/14 09:13:57;;;;;;;;;1.00;1.00;;;;;20.16;36.83;99965.03;5058845;28;45354;-41
2022/02/14 09:16:23;;;;;;;;;1.50;0.25;;;;;20.16;36.85;99969.44;5059318;28;45316;-45
2022/02/14 09:18:48;;;;;;;;;1.25;0.00;;;;;20.16;37.07;99969.44;5059094;28;46605;-47
2022/02/14 09:21:14;;;;;;;;;0.00;0.00;;;;;20.14;36.54;99969.56;5059158;28;45281;-46
2022/02/14 09:23:39;;;;;;;;;0.00;0.00;;;;;20.14;36.83;99966.94;5058936;28;45729;-43
2022/02/14 09:26:05;;;;;;;;;0.00;0.00;;;;;20.13;36.95;99970.50;5059089;28;45607;-51
2022/02/14 09:28:30;;;;;;;;;0.00;0.00;;;;;20.12;36.55;99974.06;5058629;28;46062;-55
2022/02/14 09:30:56;;;;;;;;;0.00;0.00;;;;;20.11;36.94;99966.31;5058710;28;45491;-56
2022/02/14 09:33:24;;;;;;;;;0.00;0.00;;;;;20.11;36.75;99976.81;5058456;28;45344;-56
2022/02/14 09:35:50;;;;;;;;;1.00;1.00;;;;;20.11;36.99;99971.56;5059236;28;45503;-50
2022/02/14 09:38:15;;;;;;;;;2.00;0.00;;;;;20.08;36.69;99978.69;5058609;28;45655;-55
2022/02/14 09:40:42;;;;;;;;;0.25;0.25;;;;;20.10;36.62;99972.50;5058537;28;45317;-56
2022/02/14 09:43:08;;;;;;;;;0.75;0.00;;;;;20.08;37.29;99983.97;5058447;28;45367;-56
2022/02/14 09:45:34;;;;;;;;;0.00;0.00;;;;;20.08;37.09;99983.97;5058817;28;45398;-56
2022/02/14 09:48:03;;;;;;;;;0.50;0.00;;;;;20.07;37.30;99981.41;5058468;28;45638;-55
2022/02/14 09:50:30;;;;;;;;;0.00;0.00;;;;;20.05;37.39;99984.16;5058314;28;45284;-55
2022/02/14 09:52:56;;;;;;;;;0.00;0.00;;;;;20.05;36.93;99994.69;5058500;28;45384;-55
2022/02/14 09:55:21;;;;;;;;;0.00;0.00;;;;;20.04;37.38;100002.69;5058570;28;45352;-48
2022/02/14 09:57:47;;;;;;;;;0.00;0.00;;;;;20.04;36.87;100000.88;5058339;28;46097;-55
2022/02/14 10:00:14;;;;;;;;;3.00;0.00;;;;;20.03;37.38;100007.09;5040174;28;45598;-53
2022/02/14 10:02:40;;;;;;;;;0.75;0.00;;;;;20.00;37.09;100004.69;5040220;28;45378;-54
2022/02/14 10:05:09;;;;;;;;;1.75;0.00;;;;;20.00;36.93;100007.31;5058364;28;45391;-52
2022/02/14 10:07:40;;;;;;;;;0.00;0.00;;;;;20.01;37.45;100011.59;5057873;28;46557;-57
2022/02/14 10:10:11;;;;;;;;;1.00;0.50;;;;;20.01;37.40;100014.22;5056776;28;45399;-56
2022/02/14 10:12:43;;;;;;;;;1.00;1.00;;;;;20.01;37.22;100013.41;5058255;28;45406;-58
2022/02/14 10:15:09;;;;;;;;;2.00;0.25;;;;;20.02;37.16;100013.28;5058207;28;45347;-54
2022/02/14 10:17:48;;;;;;;;;0.50;0.25;;;;;20.04;37.20;100016.66;5057904;28;46371;-58
2022/02/14 10:20:18;;;;;;;;;0.25;0.00;;;;;20.02;37.21;100013.28;5057953;28;45228;-63
2022/02/14 10:22:56;;;;;;;;;1.50;0.00;;;;;20.04;37.15;100024.56;5057768;28;45403;-69
2022/02/14 10:25:39;;;;;;;;;0.00;0.00;;;;;20.03;36.87;100014.97;5058421;28;45228;-59
2022/02/14 10:28:20;;;;;;;;;0.25;0.00;;;;;20.01;37.01;100022.13;5057802;28;46727;-60
2022/02/14 10:31:06;;;;;;;;;0.00;0.00;;;;;20.01;37.00;100019.50;5057882;28;45350;-60
2022/02/14 10:33:53;;;;;;;;;3.00;0.50;;;;;20.03;36.73;100038.66;5057995;28;45383;-56
2022/02/14 10:36:36;;;;;;;;;0.00;0.00;;;;;20.01;36.60;100034.44;5058383;28;45323;-55
2022/02/14 10:39:08;;;;;;;;;0.00;0.00;;;;;20.03;37.13;100043.91;5056272;28;45691;-55
2022/02/14 10:41:33;;;;;;;;;0.75;0.75;;;;;20.03;37.15;100027.31;5057970;28;45256;-48
2022/02/14 10:44:07;;;;;;;;;0.00;0.00;;;;;20.04;36.74;100032.44;5057784;28;45571;-54
2022/02/14 10:46:32;;;;;;;;;0.00;0.00;;;;;20.07;37.44;100037.53;5056808;28;45562;-50
2022/02/14 10:49:00;;;;;;;;;0.50;0.50;;;;;20.07;37.03;100042.78;5057345;28;46353;-52
2022/02/14 10:51:26;;;;;;;;;0.00;0.00;;;;;20.06;36.76;100041.09;5057438;28;45406;-55
2022/02/14 10:53:55;;;;;;;;;1.00;0.00;;;;;20.06;36.78;100029.75;5057778;28;45336;-52
2022/02/14 10:56:22;;;;;;;;;0.25;0.25;;;;;20.06;37.07;100037.63;5039869;28;45567;-54
2022/02/14 10:58:48;;;;;;;;;0.75;0.75;;;;;20.09;37.13;100045.28;5057093;28;47438;-54
2022/02/14 11:01:16;;;;;;;;;0.00;0.00;;;;;20.07;36.86;100028.78;5057448;28;45743;-56
2022/02/14 11:03:43;;;;;;;;;1.00;1.00;;;;;20.11;36.89;100021.53;5057292;28;45392;-58
2022/02/14 11:06:10;;;;;;;;;2.00;1.00;;;;;20.10;36.95;100030.38;5057118;28;45592;-58
2022/02/14 11:08:37;;;;;;;;;0.00;0.00;;;;;20.12;37.00;100034.59;5057102;28;45268;-55
2022/02/14 11:11:07;;;;;;;;;1.00;0.00;;;;;20.11;37.18;100019.75;5057101;28;45238;-57
2022/02/14 11:13:33;;;;;;;;;0.00;0.00;;;;;20.08;36.77;100015.53;5057223;28;45386;-44
2022/02/14 11:16:01;;;;;;;;;2.75;0.00;;;;;20.11;37.17;100016.28;5057376;28;45450;-52
2022/02/14 11:18:32;;;;;;;;;1.50;0.50;;;;;20.10;36.74;100023.31;5056685;28;46456;-54
2022/02/14 11:21:02;;;;;;;;;0.75;0.75;;;;;20.04;36.89;100014.03;5057074;28;45367;-55
2022/02/14 11:23:30;;;;;;;;;0.00;0.00;;;;;20.07;37.11;100019.09;5057022;28;45281;-55
2022/02/14 11:26:08;;;;;;;;;1.25;1.00;;;;;20.05;37.20;100010.47;5057208;28;45478;-48
2022/02/14 11:28:39;;;;;;;;;1.00;1.00;;;;;20.05;36.60;100015.72;5056876;28;45424;-58
2022/02/14 11:31:12;;;;;;;;;1.25;0.00;;;;;20.04;37.08;100013.22;5055597;28;45715;-58
2022/02/14 11:33:51;;;;;;;;;1.50;1.25;;;;;20.01;36.86;100014.22;5056857;28;45252;-56